Terminal Aerodrome Forecast
Issued by NWS

Home | Current Version | Previous Version | Text Only | Print | Product List | Glossary On
Versions: 1 2 3 4 5 6 7 8 9 10 11 12 13 14 15 16 17 18 19
000
FTUS46 KSGX 050520
TAFCRQ
TAF
KCRQ 050520Z 0506/0606 00000KT P6SM OVC011
     FM052000 26011KT P6SM BKN015
      TEMPO 0521/0601 SCT015
     FM060100 25005KT P6SM BKN012=

USA.gov is the U.S. government's official web portal to all federal, state and local government web resources and services.